MKJP/KIN METAR and TAF weather

Enter ICAO airport designator
Station Type Date Time Source
MKJP METAR 2020/01/21 18:00 UTC NOAA

MKJP 211800Z 22006KT 9999 FEW022 30/22 Q1013


Station Type Date Time Source
MKJP Decoded METAR 2020/01/21 18:00 UTC NOAA

Kingston / Norman Manley, Jamaica (MKJP) 17-56N 076-47W 14M
Jan 21, 2020 - 01:00 PM EST / 2020.01.21 1800 UTC
Wind: from the SW (220 degrees) at 7 MPH (6 KT):0
Visibility: greater than 7 mile(s):0
Sky conditions: mostly clear
Temperature: 86 F (30 C)
Heat index: 91.8 F (33.2 C):1
Dew Point: 71 F (22 C)
Relative Humidity: 62%
Pressure (altimeter): 29.91 in. Hg (1013 hPa)
ob: MKJP 211800Z 22006KT 9999 FEW022 30/22 Q1013
cycle: 18

Station Type Date Time Source
MKJP TAF 2020/01/21 18:30 UTC NOAA

TAF MKJP 211715Z 2118/2218 16010KT 9999 FEW022
BECMG 2201/2203 35005KT
BECMG 2214/2216 18010KT
TEMPO 2218/2221 5000 SHRA BKN018 SCT020CB

Example: see airport list